Katherine — V7ZU2 — position and weather

sailwx.info

Track history (hours):
 
Tides and Currents Weather Stations Pressure Air Temp Water Temp Dewpoint Dewpoint Depression Visibility Wind Speed Wind Dir Waves Ship Positions

Katherine

Last reported at 2017-Dec-18 16:08 UTC. Time now 2017-Dec-18 16:58 UTC.
Position N 36°29' E 020°38'.

Length 270 m; draft 12.1 m.

Type: Ship (hazmat cat A). MMSI: 538004914.

Date/timePositionNaut miles runAvg speedWind from/ knotsBaromVisibWave heightAir tempDewpointWater temp
2017-Dec-18 16:08N 36°29' E 020°38'320.3
2017-Dec-18 16:01N 36°28' E 020°41'1020.2
2017-Dec-18 15:30N 36°25' E 020°53'1019.9
2017-Dec-18 15:01N 36°22' E 021°05'1019.9
2017-Dec-18 14:30N 36°19' E 021°17'13619.6
2017-Dec-18 07:32N 35°45' E 024°00'220.4
2017-Dec-18 07:27N 35°45' E 024°02'920.3
2017-Dec-18 07:01N 35°44' E 024°13'1020.2
2017-Dec-18 06:30N 35°43' E 024°26'1020.3
2017-Dec-18 06:00N 35°41' E 024°38'1620.8
2017-Dec-18 05:15N 35°38' E 024°57'521.0
2017-Dec-18 05:00N 35°37' E 025°03'1020.9
2017-Dec-18 04:31N 35°35' E 025°16'1020.7
2017-Dec-18 04:00N 35°33' E 025°28'1020.3
2017-Dec-18 03:31N 35°32' E 025°41'2520.3
2017-Dec-18 02:15N 35°28' E 026°12'6520.6
2017-Dec-17 23:05N 35°20' E 027°31'221.5
2017-Dec-17 23:00N 35°20' E 027°33'1421.1
2017-Dec-17 22:21N 35°21' E 027°50'720.7
2017-Dec-17 22:01N 35°22' E 027°59'  
Track history (hours):
 
Tides and Currents Weather Stations Pressure Air Temp Water Temp Dewpoint Dewpoint Depression Visibility Wind Speed Wind Dir Waves Ship Positions

Katherine

Last reported at 2017-Dec-18 16:08 UTC. Time now 2017-Dec-18 16:58 UTC.
Position N 36°29' E 020°38'.

Length 270 m; draft 12.1 m.

Type: Ship (hazmat cat A). MMSI: 538004914.

Date/timePositionNaut miles runAvg speedWind from/ knotsBaromVisibWave heightAir tempDewpointWater temp
2017-Dec-18 16:08N 36°29' E 020°38'320.3
2017-Dec-18 16:01N 36°28' E 020°41'1020.2
2017-Dec-18 15:30N 36°25' E 020°53'1019.9
2017-Dec-18 15:01N 36°22' E 021°05'1019.9
2017-Dec-18 14:30N 36°19' E 021°17'13619.6
2017-Dec-18 07:32N 35°45' E 024°00'220.4
2017-Dec-18 07:27N 35°45' E 024°02'920.3
2017-Dec-18 07:01N 35°44' E 024°13'1020.2
2017-Dec-18 06:30N 35°43' E 024°26'1020.3
2017-Dec-18 06:00N 35°41' E 024°38'1620.8
2017-Dec-18 05:15N 35°38' E 024°57'521.0
2017-Dec-18 05:00N 35°37' E 025°03'1020.9
2017-Dec-18 04:31N 35°35' E 025°16'1020.7
2017-Dec-18 04:00N 35°33' E 025°28'1020.3
2017-Dec-18 03:31N 35°32' E 025°41'2520.3
2017-Dec-18 02:15N 35°28' E 026°12'6520.6
2017-Dec-17 23:05N 35°20' E 027°31'221.5
2017-Dec-17 23:00N 35°20' E 027°33'1421.1
2017-Dec-17 22:21N 35°21' E 027°50'720.7
2017-Dec-17 22:01N 35°22' E 027°59'  

Dump ship's entire track history